Terminal Aerodrome Forecast
Issued by NWS

Current Version | Previous Version | Text Only | Print | Product List | Glossary Off
Versions: 1 2 3 4 5 6 7 8 9 10 11 12 13

478
FTUS41 KPBZ 262326
TAFMGW
TAF
KMGW 262326Z 2700/2724 21005KT P6SM SCT140
     FM271000 21005KT 5SM BR BKN120
     FM271300 22005KT P6SM BKN080
     FM271900 24005KT P6SM BKN045=

USA.gov is the U.S. government's official web portal to all federal, state and local government web resources and services.